Аэропорт
Бишкек (UCFM)

 UCFM / FRU
ЗЦ Центральная Азия
Бишкек (UCFM)
Бишкек (UCFM)
 43.06130, 74.47760  / 2058 ft

 UCFM 161030Z VRB01MPS 9999 SCT040 05/02 Q1021 R08/19//95 NOSIG
 UCFM 151644Z 1518/1618 26003G08MPS 1500 BR FU SCT007 BKN030CB TEMPO 1518/1524 30007G12MPS 0500 SHRASN FZFG BKN002 OVC015CB TEMPO 1600/1606 0500 SHSN FZFG BKN002 OVC015CB FM160600 36003G08MPS 4000 BR BKN050CB
показать схемы



2018 © VATRUS division